sensor_id;sensor_type;location;lat;lon;timestamp;temperature;humidity
21121;DHT22;12519;43.318;21.898;2022-07-29T00:03:26;27.4;82.0
21121;DHT22;12519;43.318;21.898;2022-07-29T00:08:03;27.4;82.0
21121;DHT22;12519;43.318;21.898;2022-07-29T00:12:40;27.4;82.0
21121;DHT22;12519;43.318;21.898;2022-07-29T00:17:16;27.2;83.0
21121;DHT22;12519;43.318;21.898;2022-07-29T00:21:52;27.2;83.0
21121;DHT22;12519;43.318;21.898;2022-07-29T00:26:28;27.2;83.0
21121;DHT22;12519;43.318;21.898;2022-07-29T00:31:05;27.1;83.0
21121;DHT22;12519;43.318;21.898;2022-07-29T00:35:41;27.1;83.0
21121;DHT22;12519;43.318;21.898;2022-07-29T00:40:17;26.6;84.0
21121;DHT22;12519;43.318;21.898;2022-07-29T00:44:54;26.6;84.0
21121;DHT22;12519;43.318;21.898;2022-07-29T00:49:30;26.1;85.0
21121;DHT22;12519;43.318;21.898;2022-07-29T00:54:08;26.1;85.0
21121;DHT22;12519;43.318;21.898;2022-07-29T00:58:47;26.0;86.0
21121;DHT22;12519;43.318;21.898;2022-07-29T01:03:28;26.0;86.0
21121;DHT22;12519;43.318;21.898;2022-07-29T01:08:06;25.9;86.0
21121;DHT22;12519;43.318;21.898;2022-07-29T01:12:48;25.9;86.0
21121;DHT22;12519;43.318;21.898;2022-07-29T01:17:43;26.2;85.0
21121;DHT22;12519;43.318;21.898;2022-07-29T01:23:13;26.2;85.0
21121;DHT22;12519;43.318;21.898;2022-07-29T01:29:02;26.6;84.0
21121;DHT22;12519;43.318;21.898;2022-07-29T01:34:05;26.6;84.0
21121;DHT22;12519;43.318;21.898;2022-07-29T01:39:14;26.6;84.0
21121;DHT22;12519;43.318;21.898;2022-07-29T01:44:23;26.6;84.0
21121;DHT22;12519;43.318;21.898;2022-07-29T01:49:28;26.7;84.0
21121;DHT22;12519;43.318;21.898;2022-07-29T01:54:35;26.7;84.0
21121;DHT22;12519;43.318;21.898;2022-07-29T01:59:45;26.8;83.0
21121;DHT22;12519;43.318;21.898;2022-07-29T02:04:37;26.8;83.0
21121;DHT22;12519;43.318;21.898;2022-07-29T02:09:31;26.9;83.0
21121;DHT22;12519;43.318;21.898;2022-07-29T02:14:28;26.9;83.0
21121;DHT22;12519;43.318;21.898;2022-07-29T02:19:32;27.0;82.0
21121;DHT22;12519;43.318;21.898;2022-07-29T02:24:25;27.0;82.0
21121;DHT22;12519;43.318;21.898;2022-07-29T02:29:09;27.0;82.0
21121;DHT22;12519;43.318;21.898;2022-07-29T02:33:53;27.0;82.0
21121;DHT22;12519;43.318;21.898;2022-07-29T02:38:35;27.2;82.0
21121;DHT22;12519;43.318;21.898;2022-07-29T02:43:19;27.2;82.0
21121;DHT22;12519;43.318;21.898;2022-07-29T02:48:13;27.3;81.0
21121;DHT22;12519;43.318;21.898;2022-07-29T02:53:07;27.3;81.0
21121;DHT22;12519;43.318;21.898;2022-07-29T02:58:02;27.3;81.0
21121;DHT22;12519;43.318;21.898;2022-07-29T03:02:59;27.3;81.0
21121;DHT22;12519;43.318;21.898;2022-07-29T03:08:01;27.3;81.0
21121;DHT22;12519;43.318;21.898;2022-07-29T03:12:48;27.3;81.0
21121;DHT22;12519;43.318;21.898;2022-07-29T03:17:26;27.3;81.0
21121;DHT22;12519;43.318;21.898;2022-07-29T03:22:07;27.2;81.0
21121;DHT22;12519;43.318;21.898;2022-07-29T03:26:45;27.2;81.0
21121;DHT22;12519;43.318;21.898;2022-07-29T03:31:21;27.2;82.0
21121;DHT22;12519;43.318;21.898;2022-07-29T03:35:58;27.2;82.0
21121;DHT22;12519;43.318;21.898;2022-07-29T03:40:44;27.2;81.0
21121;DHT22;12519;43.318;21.898;2022-07-29T03:45:34;27.2;81.0
21121;DHT22;12519;43.318;21.898;2022-07-29T03:50:15;27.2;81.0
21121;DHT22;12519;43.318;21.898;2022-07-29T03:54:53;27.2;81.0
21121;DHT22;12519;43.318;21.898;2022-07-29T03:59:33;27.2;81.0
21121;DHT22;12519;43.318;21.898;2022-07-29T04:04:12;27.2;81.0
21121;DHT22;12519;43.318;21.898;2022-07-29T04:08:50;27.2;81.0
21121;DHT22;12519;43.318;21.898;2022-07-29T04:13:27;27.2;81.0
21121;DHT22;12519;43.318;21.898;2022-07-29T04:18:05;27.0;82.0
21121;DHT22;12519;43.318;21.898;2022-07-29T04:22:42;27.0;82.0
21121;DHT22;12519;43.318;21.898;2022-07-29T04:27:19;27.0;82.0
21121;DHT22;12519;43.318;21.898;2022-07-29T04:31:56;26.8;82.0
21121;DHT22;12519;43.318;21.898;2022-07-29T04:36:33;26.8;82.0
21121;DHT22;12519;43.318;21.898;2022-07-29T04:41:10;26.8;82.0
21121;DHT22;12519;43.318;21.898;2022-07-29T04:45:47;26.8;82.0
21121;DHT22;12519;43.318;21.898;2022-07-29T04:50:25;26.7;82.0
21121;DHT22;12519;43.318;21.898;2022-07-29T04:55:06;26.7;82.0
21121;DHT22;12519;43.318;21.898;2022-07-29T04:59:45;26.4;83.0
21121;DHT22;12519;43.318;21.898;2022-07-29T05:04:22;26.4;83.0
21121;DHT22;12519;43.318;21.898;2022-07-29T05:08:59;26.0;84.0
21121;DHT22;12519;43.318;21.898;2022-07-29T05:13:36;26.0;84.0
21121;DHT22;12519;43.318;21.898;2022-07-29T05:18:12;26.2;84.0
21121;DHT22;12519;43.318;21.898;2022-07-29T05:22:48;26.2;84.0
21121;DHT22;12519;43.318;21.898;2022-07-29T05:27:25;26.2;84.0
21121;DHT22;12519;43.318;21.898;2022-07-29T05:32:02;26.5;84.0
21121;DHT22;12519;43.318;21.898;2022-07-29T05:36:41;26.5;84.0
21121;DHT22;12519;43.318;21.898;2022-07-29T05:41:17;26.7;83.0
21121;DHT22;12519;43.318;21.898;2022-07-29T05:45:54;26.7;83.0
21121;DHT22;12519;43.318;21.898;2022-07-29T05:50:31;26.9;82.0
21121;DHT22;12519;43.318;21.898;2022-07-29T05:55:09;26.9;82.0
21121;DHT22;12519;43.318;21.898;2022-07-29T05:59:46;26.8;81.0
21121;DHT22;12519;43.318;21.898;2022-07-29T06:04:26;26.8;81.0
21121;DHT22;12519;43.318;21.898;2022-07-29T06:09:03;26.6;81.0
21121;DHT22;12519;43.318;21.898;2022-07-29T06:13:39;26.6;81.0
21121;DHT22;12519;43.318;21.898;2022-07-29T06:18:16;26.4;81.0
21121;DHT22;12519;43.318;21.898;2022-07-29T06:22:52;26.4;81.0
21121;DHT22;12519;43.318;21.898;2022-07-29T06:27:28;26.4;81.0
21121;DHT22;12519;43.318;21.898;2022-07-29T06:32:05;26.1;82.0
21121;DHT22;12519;43.318;21.898;2022-07-29T06:36:42;26.1;82.0
21121;DHT22;12519;43.318;21.898;2022-07-29T06:41:18;26.0;82.0
21121;DHT22;12519;43.318;21.898;2022-07-29T06:45:55;26.0;82.0
21121;DHT22;12519;43.318;21.898;2022-07-29T06:50:31;26.0;83.0
21121;DHT22;12519;43.318;21.898;2022-07-29T06:55:09;26.0;83.0
21121;DHT22;12519;43.318;21.898;2022-07-29T06:59:46;25.8;84.0
21121;DHT22;12519;43.318;21.898;2022-07-29T07:04:23;25.8;84.0
21121;DHT22;12519;43.318;21.898;2022-07-29T07:09:01;25.6;86.0
21121;DHT22;12519;43.318;21.898;2022-07-29T07:13:39;25.6;86.0
21121;DHT22;12519;43.318;21.898;2022-07-29T07:18:16;26.0;86.0
21121;DHT22;12519;43.318;21.898;2022-07-29T07:22:55;26.0;86.0
21121;DHT22;12519;43.318;21.898;2022-07-29T07:27:32;26.0;86.0
21121;DHT22;12519;43.318;21.898;2022-07-29T07:32:09;26.3;86.0
21121;DHT22;12519;43.318;21.898;2022-07-29T07:36:46;26.3;86.0
21121;DHT22;12519;43.318;21.898;2022-07-29T07:41:23;26.8;83.0
21121;DHT22;12519;43.318;21.898;2022-07-29T07:46:02;26.8;83.0
21121;DHT22;12519;43.318;21.898;2022-07-29T07:50:39;27.4;81.0
21121;DHT22;12519;43.318;21.898;2022-07-29T07:55:16;27.4;81.0
21121;DHT22;12519;43.318;21.898;2022-07-29T07:59:54;27.8;79.0
21121;DHT22;12519;43.318;21.898;2022-07-29T08:04:31;27.8;79.0
21121;DHT22;12519;43.318;21.898;2022-07-29T08:09:09;28.1;78.0
21121;DHT22;12519;43.318;21.898;2022-07-29T08:13:45;28.1;78.0
21121;DHT22;12519;43.318;21.898;2022-07-29T08:18:21;28.4;77.0
21121;DHT22;12519;43.318;21.898;2022-07-29T08:22:59;28.4;77.0
21121;DHT22;12519;43.318;21.898;2022-07-29T08:27:35;28.4;77.0
21121;DHT22;12519;43.318;21.898;2022-07-29T08:32:11;28.8;75.0
21121;DHT22;12519;43.318;21.898;2022-07-29T08:36:48;28.8;75.0
21121;DHT22;12519;43.318;21.898;2022-07-29T08:41:24;28.9;75.0
21121;DHT22;12519;43.318;21.898;2022-07-29T08:46:02;28.9;75.0
21121;DHT22;12519;43.318;21.898;2022-07-29T08:50:41;29.0;74.0
21121;DHT22;12519;43.318;21.898;2022-07-29T08:55:22;29.0;74.0
21121;DHT22;12519;43.318;21.898;2022-07-29T09:00:03;28.9;75.0
21121;DHT22;12519;43.318;21.898;2022-07-29T09:04:44;28.9;75.0
21121;DHT22;12519;43.318;21.898;2022-07-29T09:09:23;28.8;76.0
21121;DHT22;12519;43.318;21.898;2022-07-29T09:14:00;28.8;76.0
21121;DHT22;12519;43.318;21.898;2022-07-29T09:18:40;28.9;75.0
21121;DHT22;12519;43.318;21.898;2022-07-29T09:23:23;28.9;75.0
21121;DHT22;12519;43.318;21.898;2022-07-29T09:28:07;28.9;75.0
21121;DHT22;12519;43.318;21.898;2022-07-29T09:33:00;29.0;74.0
21121;DHT22;12519;43.318;21.898;2022-07-29T09:37:40;29.0;74.0
21121;DHT22;12519;43.318;21.898;2022-07-29T09:42:29;29.2;73.0
21121;DHT22;12519;43.318;21.898;2022-07-29T09:47:07;29.2;73.0
21121;DHT22;12519;43.318;21.898;2022-07-29T09:51:45;29.3;73.0
21121;DHT22;12519;43.318;21.898;2022-07-29T09:56:39;29.3;73.0
21121;DHT22;12519;43.318;21.898;2022-07-29T10:01:28;29.5;71.0
21121;DHT22;12519;43.318;21.898;2022-07-29T10:06:09;29.5;71.0
21121;DHT22;12519;43.318;21.898;2022-07-29T10:10:48;29.7;70.0
21121;DHT22;12519;43.318;21.898;2022-07-29T10:15:29;29.7;70.0
21121;DHT22;12519;43.318;21.898;2022-07-29T10:20:21;29.9;69.0
21121;DHT22;12519;43.318;21.898;2022-07-29T10:25:04;29.9;69.0
21121;DHT22;12519;43.318;21.898;2022-07-29T10:29:46;30.1;68.0
21121;DHT22;12519;43.318;21.898;2022-07-29T10:34:39;30.1;68.0
21121;DHT22;12519;43.318;21.898;2022-07-29T10:40:22;30.2;67.0
21121;DHT22;12519;43.318;21.898;2022-07-29T10:45:30;30.2;67.0
21121;DHT22;12519;43.318;21.898;2022-07-29T10:50:08;30.2;66.0
21121;DHT22;12519;43.318;21.898;2022-07-29T10:54:48;30.2;66.0
21121;DHT22;12519;43.318;21.898;2022-07-29T10:59:26;30.2;66.0
21121;DHT22;12519;43.318;21.898;2022-07-29T11:04:02;30.2;66.0
21121;DHT22;12519;43.318;21.898;2022-07-29T11:08:40;30.1;66.0
21121;DHT22;12519;43.318;21.898;2022-07-29T11:13:47;30.1;66.0
21121;DHT22;12519;43.318;21.898;2022-07-29T11:18:27;30.1;66.0
21121;DHT22;12519;43.318;21.898;2022-07-29T11:23:24;30.2;66.0
21121;DHT22;12519;43.318;21.898;2022-07-29T11:28:18;30.2;66.0
21121;DHT22;12519;43.318;21.898;2022-07-29T11:32:58;30.2;66.0
21121;DHT22;12519;43.318;21.898;2022-07-29T11:37:35;30.2;66.0
21121;DHT22;12519;43.318;21.898;2022-07-29T11:42:45;30.4;66.0
21121;DHT22;12519;43.318;21.898;2022-07-29T11:47:28;30.4;66.0
21121;DHT22;12519;43.318;21.898;2022-07-29T11:52:05;30.7;65.0
21121;DHT22;12519;43.318;21.898;2022-07-29T11:56:45;30.7;65.0
21121;DHT22;12519;43.318;21.898;2022-07-29T12:01:24;30.9;65.0
21121;DHT22;12519;43.318;21.898;2022-07-29T12:06:01;30.9;65.0
21121;DHT22;12519;43.318;21.898;2022-07-29T12:10:51;31.1;65.0
21121;DHT22;12519;43.318;21.898;2022-07-29T12:15:30;31.1;65.0
21121;DHT22;12519;43.318;21.898;2022-07-29T12:20:08;31.1;65.0
21121;DHT22;12519;43.318;21.898;2022-07-29T12:24:47;31.1;65.0
21121;DHT22;12519;43.318;21.898;2022-07-29T12:29:25;31.1;65.0
21121;DHT22;12519;43.318;21.898;2022-07-29T12:34:03;31.1;65.0
21121;DHT22;12519;43.318;21.898;2022-07-29T12:38:41;31.3;65.0
21121;DHT22;12519;43.318;21.898;2022-07-29T12:43:24;31.3;65.0
21121;DHT22;12519;43.318;21.898;2022-07-29T12:48:04;31.3;65.0
21121;DHT22;12519;43.318;21.898;2022-07-29T12:52:47;31.5;65.0
21121;DHT22;12519;43.318;21.898;2022-07-29T12:57:25;31.5;65.0
21121;DHT22;12519;43.318;21.898;2022-07-29T13:02:06;31.6;65.0
21121;DHT22;12519;43.318;21.898;2022-07-29T13:07:00;31.6;65.0
21121;DHT22;12519;43.318;21.898;2022-07-29T13:11:46;31.7;65.0
21121;DHT22;12519;43.318;21.898;2022-07-29T13:16:28;31.7;65.0
21121;DHT22;12519;43.318;21.898;2022-07-29T13:21:15;32.0;64.0
21121;DHT22;12519;43.318;21.898;2022-07-29T13:25:52;32.0;64.0
21121;DHT22;12519;43.318;21.898;2022-07-29T13:30:28;32.2;63.0
21121;DHT22;12519;43.318;21.898;2022-07-29T13:35:08;32.2;63.0
21121;DHT22;12519;43.318;21.898;2022-07-29T13:39:45;32.2;64.0
21121;DHT22;12519;43.318;21.898;2022-07-29T13:44:22;32.2;64.0
21121;DHT22;12519;43.318;21.898;2022-07-29T13:48:58;32.1;64.0
21121;DHT22;12519;43.318;21.898;2022-07-29T13:53:34;32.1;64.0
21121;DHT22;12519;43.318;21.898;2022-07-29T13:58:11;32.1;64.0
21121;DHT22;12519;43.318;21.898;2022-07-29T14:02:47;32.0;64.0
21121;DHT22;12519;43.318;21.898;2022-07-29T14:07:24;32.0;64.0
21121;DHT22;12519;43.318;21.898;2022-07-29T14:12:00;32.0;64.0
21121;DHT22;12519;43.318;21.898;2022-07-29T14:16:37;32.0;64.0
21121;DHT22;12519;43.318;21.898;2022-07-29T14:21:13;32.0;65.0
21121;DHT22;12519;43.318;21.898;2022-07-29T14:25:50;32.0;65.0
21121;DHT22;12519;43.318;21.898;2022-07-29T14:30:27;32.1;65.0
21121;DHT22;12519;43.318;21.898;2022-07-29T14:35:05;32.1;65.0
21121;DHT22;12519;43.318;21.898;2022-07-29T14:39:43;32.2;64.0
21121;DHT22;12519;43.318;21.898;2022-07-29T14:44:20;32.2;64.0
21121;DHT22;12519;43.318;21.898;2022-07-29T14:48:56;32.2;64.0
21121;DHT22;12519;43.318;21.898;2022-07-29T14:53:33;32.2;64.0
21121;DHT22;12519;43.318;21.898;2022-07-29T14:58:10;32.2;64.0
21121;DHT22;12519;43.318;21.898;2022-07-29T15:02:47;32.2;64.0
21121;DHT22;12519;43.318;21.898;2022-07-29T15:07:25;32.2;64.0
21121;DHT22;12519;43.318;21.898;2022-07-29T15:12:02;32.3;64.0
21121;DHT22;12519;43.318;21.898;2022-07-29T15:16:42;32.3;64.0
21121;DHT22;12519;43.318;21.898;2022-07-29T15:21:19;32.2;64.0
21121;DHT22;12519;43.318;21.898;2022-07-29T15:25:56;32.2;64.0
21121;DHT22;12519;43.318;21.898;2022-07-29T15:30:35;32.2;64.0
21121;DHT22;12519;43.318;21.898;2022-07-29T15:35:12;32.2;64.0
21121;DHT22;12519;43.318;21.898;2022-07-29T15:39:49;32.1;64.0
21121;DHT22;12519;43.318;21.898;2022-07-29T15:44:26;32.1;64.0
21121;DHT22;12519;43.318;21.898;2022-07-29T15:49:06;32.0;65.0
21121;DHT22;12519;43.318;21.898;2022-07-29T15:53:44;32.0;65.0
21121;DHT22;12519;43.318;21.898;2022-07-29T15:58:20;32.0;65.0
21121;DHT22;12519;43.318;21.898;2022-07-29T16:02:56;31.9;65.0
21121;DHT22;12519;43.318;21.898;2022-07-29T16:07:32;31.9;65.0
21121;DHT22;12519;43.318;21.898;2022-07-29T16:12:08;31.8;66.0
21121;DHT22;12519;43.318;21.898;2022-07-29T16:16:45;31.8;66.0
21121;DHT22;12519;43.318;21.898;2022-07-29T16:21:21;31.7;66.0
21121;DHT22;12519;43.318;21.898;2022-07-29T16:25:57;31.7;66.0
21121;DHT22;12519;43.318;21.898;2022-07-29T16:30:35;31.6;66.0
21121;DHT22;12519;43.318;21.898;2022-07-29T16:35:12;31.6;66.0
21121;DHT22;12519;43.318;21.898;2022-07-29T16:39:48;31.6;67.0
21121;DHT22;12519;43.318;21.898;2022-07-29T16:44:25;31.6;67.0
21121;DHT22;12519;43.318;21.898;2022-07-29T16:49:02;31.6;67.0
21121;DHT22;12519;43.318;21.898;2022-07-29T16:53:38;31.5;67.0
21121;DHT22;12519;43.318;21.898;2022-07-29T16:58:15;31.5;67.0
21121;DHT22;12519;43.318;21.898;2022-07-29T17:02:51;31.4;68.0
21121;DHT22;12519;43.318;21.898;2022-07-29T17:07:27;31.4;68.0
21121;DHT22;12519;43.318;21.898;2022-07-29T17:12:05;31.3;68.0
21121;DHT22;12519;43.318;21.898;2022-07-29T17:16:43;31.3;68.0
21121;DHT22;12519;43.318;21.898;2022-07-29T17:21:21;31.2;68.0
21121;DHT22;12519;43.318;21.898;2022-07-29T17:26:00;31.2;68.0
21121;DHT22;12519;43.318;21.898;2022-07-29T17:30:37;31.1;69.0
21121;DHT22;12519;43.318;21.898;2022-07-29T17:35:13;31.1;69.0
21121;DHT22;12519;43.318;21.898;2022-07-29T17:39:50;31.0;69.0
21121;DHT22;12519;43.318;21.898;2022-07-29T17:44:27;31.0;69.0
21121;DHT22;12519;43.318;21.898;2022-07-29T17:49:05;31.0;69.0
21121;DHT22;12519;43.318;21.898;2022-07-29T17:53:42;30.9;70.0
21121;DHT22;12519;43.318;21.898;2022-07-29T17:58:19;30.9;70.0
21121;DHT22;12519;43.318;21.898;2022-07-29T18:02:57;30.8;70.0
21121;DHT22;12519;43.318;21.898;2022-07-29T18:07:34;30.8;70.0
21121;DHT22;12519;43.318;21.898;2022-07-29T18:12:11;30.8;70.0
21121;DHT22;12519;43.318;21.898;2022-07-29T18:16:48;30.8;70.0
21121;DHT22;12519;43.318;21.898;2022-07-29T18:21:25;30.6;71.0
21121;DHT22;12519;43.318;21.898;2022-07-29T18:26:03;30.6;71.0
21121;DHT22;12519;43.318;21.898;2022-07-29T18:30:41;30.5;71.0
21121;DHT22;12519;43.318;21.898;2022-07-29T18:35:18;30.5;71.0
21121;DHT22;12519;43.318;21.898;2022-07-29T18:39:54;30.4;71.0
21121;DHT22;12519;43.318;21.898;2022-07-29T18:44:31;30.4;71.0
21121;DHT22;12519;43.318;21.898;2022-07-29T18:49:08;30.4;71.0
21121;DHT22;12519;43.318;21.898;2022-07-29T18:53:44;30.4;72.0
21121;DHT22;12519;43.318;21.898;2022-07-29T18:58:20;30.4;72.0
21121;DHT22;12519;43.318;21.898;2022-07-29T19:02:57;30.2;72.0
21121;DHT22;12519;43.318;21.898;2022-07-29T19:07:33;30.2;72.0
21121;DHT22;12519;43.318;21.898;2022-07-29T19:12:11;30.1;72.0
21121;DHT22;12519;43.318;21.898;2022-07-29T19:16:48;30.1;72.0
21121;DHT22;12519;43.318;21.898;2022-07-29T19:21:24;30.0;73.0
21121;DHT22;12519;43.318;21.898;2022-07-29T19:26:00;30.0;73.0
21121;DHT22;12519;43.318;21.898;2022-07-29T19:30:37;29.9;73.0
21121;DHT22;12519;43.318;21.898;2022-07-29T19:35:14;29.9;73.0
21121;DHT22;12519;43.318;21.898;2022-07-29T19:39:50;29.8;73.0
21121;DHT22;12519;43.318;21.898;2022-07-29T19:44:26;29.8;73.0
21121;DHT22;12519;43.318;21.898;2022-07-29T19:49:03;29.8;73.0
21121;DHT22;12519;43.318;21.898;2022-07-29T19:53:39;29.8;74.0
21121;DHT22;12519;43.318;21.898;2022-07-29T19:58:15;29.8;74.0
21121;DHT22;12519;43.318;21.898;2022-07-29T20:02:52;29.7;74.0
21121;DHT22;12519;43.318;21.898;2022-07-29T20:07:28;29.7;74.0
21121;DHT22;12519;43.318;21.898;2022-07-29T20:12:07;29.6;74.0
21121;DHT22;12519;43.318;21.898;2022-07-29T20:16:47;29.6;74.0
21121;DHT22;12519;43.318;21.898;2022-07-29T20:21:25;29.5;74.0
21121;DHT22;12519;43.318;21.898;2022-07-29T20:26:02;29.5;74.0
21121;DHT22;12519;43.318;21.898;2022-07-29T20:30:40;29.4;73.0
21121;DHT22;12519;43.318;21.898;2022-07-29T20:35:17;29.4;73.0
21121;DHT22;12519;43.318;21.898;2022-07-29T20:39:54;29.4;73.0
21121;DHT22;12519;43.318;21.898;2022-07-29T20:44:31;29.4;73.0
21121;DHT22;12519;43.318;21.898;2022-07-29T20:49:10;29.4;73.0
21121;DHT22;12519;43.318;21.898;2022-07-29T20:53:47;29.3;72.0
21121;DHT22;12519;43.318;21.898;2022-07-29T20:58:25;29.3;72.0
21121;DHT22;12519;43.318;21.898;2022-07-29T21:03:02;29.2;72.0
21121;DHT22;12519;43.318;21.898;2022-07-29T21:07:39;29.2;72.0
21121;DHT22;12519;43.318;21.898;2022-07-29T21:12:17;29.2;72.0
21121;DHT22;12519;43.318;21.898;2022-07-29T21:16:53;29.2;72.0
21121;DHT22;12519;43.318;21.898;2022-07-29T21:21:29;29.2;73.0
21121;DHT22;12519;43.318;21.898;2022-07-29T21:26:06;29.2;73.0
21121;DHT22;12519;43.318;21.898;2022-07-29T21:30:43;29.1;73.0
21121;DHT22;12519;43.318;21.898;2022-07-29T21:35:19;29.1;73.0
21121;DHT22;12519;43.318;21.898;2022-07-29T21:39:56;29.1;73.0
21121;DHT22;12519;43.318;21.898;2022-07-29T21:44:33;29.1;73.0
21121;DHT22;12519;43.318;21.898;2022-07-29T21:49:09;29.1;73.0
21121;DHT22;12519;43.318;21.898;2022-07-29T21:53:46;29.1;73.0
21121;DHT22;12519;43.318;21.898;2022-07-29T21:58:22;29.1;73.0
21121;DHT22;12519;43.318;21.898;2022-07-29T22:03:00;29.1;73.0
21121;DHT22;12519;43.318;21.898;2022-07-29T22:07:41;29.1;73.0
21121;DHT22;12519;43.318;21.898;2022-07-29T22:12:17;29.1;72.0
21121;DHT22;12519;43.318;21.898;2022-07-29T22:16:54;29.1;72.0
21121;DHT22;12519;43.318;21.898;2022-07-29T22:21:30;29.0;72.0
21121;DHT22;12519;43.318;21.898;2022-07-29T22:26:07;29.0;72.0
21121;DHT22;12519;43.318;21.898;2022-07-29T22:30:43;29.0;72.0
21121;DHT22;12519;43.318;21.898;2022-07-29T22:35:19;29.0;72.0
21121;DHT22;12519;43.318;21.898;2022-07-29T22:39:56;28.9;73.0
21121;DHT22;12519;43.318;21.898;2022-07-29T22:44:33;28.9;73.0
21121;DHT22;12519;43.318;21.898;2022-07-29T22:49:09;28.9;73.0
21121;DHT22;12519;43.318;21.898;2022-07-29T22:53:46;28.8;73.0
21121;DHT22;12519;43.318;21.898;2022-07-29T22:58:23;28.8;73.0
21121;DHT22;12519;43.318;21.898;2022-07-29T23:03:00;28.8;73.0
21121;DHT22;12519;43.318;21.898;2022-07-29T23:07:37;28.8;73.0
21121;DHT22;12519;43.318;21.898;2022-07-29T23:12:13;28.7;73.0
21121;DHT22;12519;43.318;21.898;2022-07-29T23:16:50;28.7;73.0
21121;DHT22;12519;43.318;21.898;2022-07-29T23:21:27;28.7;73.0
21121;DHT22;12519;43.318;21.898;2022-07-29T23:26:04;28.7;73.0
21121;DHT22;12519;43.318;21.898;2022-07-29T23:30:42;28.7;74.0
21121;DHT22;12519;43.318;21.898;2022-07-29T23:35:20;28.7;74.0
21121;DHT22;12519;43.318;21.898;2022-07-29T23:39:58;28.7;73.0
21121;DHT22;12519;43.318;21.898;2022-07-29T23:44:36;28.7;73.0
21121;DHT22;12519;43.318;21.898;2022-07-29T23:49:15;28.7;73.0
21121;DHT22;12519;43.318;21.898;2022-07-29T23:53:51;28.7;73.0
21121;DHT22;12519;43.318;21.898;2022-07-29T23:58:28;28.7;73.0
